Terminal Aerodrome Forecast
Issued by NWS

Home | Current Version | Previous Version | Text Only | Print | Product List | Glossary On
Versions: 1 2 3 4 5 6 7 8 9 10 11 12 13 14 15 16 17 18 19
809
FTUS46 KSEW 181722
TAFOLM
TAF
KOLM 181722Z 1818/1918 21010KT 3SM -RA BR BKN006 OVC015
     FM182000 20008KT P6SM VCSH OVC015
     FM190000 18004KT 4SM -RA BKN010 OVC025
     FM190700 19007KT 2SM -RA BR BKN005 OVC010=

USA.gov is the U.S. government's official web portal to all federal, state and local government web resources and services.